首页
METAR-TAF:

METAR-TAF

机场 :

可可比奇, 佛罗里达州, 美国

纬度: 28-14N, 经度: 080-36W, 海拔: 3米

当前天气观测

该预报发布于1小时和2分钟前的13:56 UTC
静风
温度 18°C
湿度 83%
气压 1024 hPa
能見度: 16.1公里
天空无云

METAR: KCOF 231356Z AUTO 00000KT 10SM CLR 18/15 A3025 RMK AO2 SLP248 T01820145 $

时间: 09:58 (14:58 UTC)

预报

该预报发布于3小时和58分钟前的11:00 UTC
预报有效从23日的 11点(UTC)到 24日的 17点(UTC)
风速6节,风向多变
能见度10公里或以上
散云层高于5000英尺
成为
从 23日的 16点(UTC)到 23日的 17点(UTC)
风速12节,风向
能见度10公里或以上
散云层高于6000英尺
成为
从 24日的 04点(UTC)到 24日的 05点(UTC)
风速8节,风向东南
能见度10公里或以上
少量云层高于4500英尺
散云层高于18000英尺

TAF: KCOF 231100Z 2311/2417 VRB06KT 9999 SCT050 QNH3017INS BECMG 2316/2317 10012KT 9999 SCT060 QNH3015INS BECMG 2404/2405 13008KT 9999 FEW045 SCT180 QNH3010INS TX23/2318Z TN16/2411Z

超过4000个机场的气象观测和天气预报(METAR&TAF报告)。

可查询的气象台以黄色和红色小点在地图上表示。

将鼠标移到小点上方,可查看气象台名称。

然后点击查看天气观测和预报。

如需切换地图:点击带黑十字的绿色按钮放大地图;点击带横线的绿色按钮缩小地图;或者点击绿色箭头查看邻近地区的地图。


METAR-TAF: